الصفحة الرئيسية
METAR-TAF:

METAR-TAF

مطار :

Truth or Consequences Municipal Airport

Truth or Consequences, نيومكسيكو, الولايات المتحدة

دائرة عرض: 33-14-12N, خط طول: 107-16-05W, ارتفاع: 1478 متر

مراقبة الطقس الحالي

تاريخ ووقت الإصدار 17 دقيقة قبل الساعة 12:53UTC
ريح 19 عقدة من الشمال/الشمال الغربي تتزايد حتى 31 عقدة
درجة الحرارة 2°درجة مئوية
الرطوبة 29%
ضغط 1020 hPa
الرؤية: 16.1 كم
سماء صافية

METAR: KTCS 131253Z AUTO 33019G31KT 10SM CLR 02/M14 A3013 RMK AO2 PK WND 33036/1213 SLP174 T00221139

زمن: 06:10 (13:10 UTC)

توقعات

تاريخ ووقت الإصدار 1ساعة و 50 دقيقة قبل الساعة 11:20UTC
التوقعات صالحة من13 الساعة 12 UTC إلى 14 الساعة 12 UTC
ريح 25 عقدة من الشمال/الشمال الغربي تتزايد حتى 35 عقدة
الرؤية: 10 كم
غيوم قليلة على ارتفاع 8000 قدم
من 13 الساعة 1400 UTC
ريح 15 عقدة من الشمال تتزايد حتى 22 عقدة
الرؤية: 10 كم
غيوم قليلة على ارتفاع 8000 قدم
من 13 الساعة 2200 UTC
ريح 10 عقدة من الشمال/الشمال الغربي
الرؤية: 10 كم
سماء صافية

TAF: KTCS 131120Z 1312/1412 33025G35KT P6SM FEW080 FM131400 36015G22KT P6SM FEW080 FM132200 33010KT P6SM SKC

أرصاد الطقس والتوقعات من أكثر من 4000 مطار (تقارير الطقس للمطار METAR والتنبؤ بالطقس بالمطارTAF).

المحطات المتاحة هي النقط الصفراء والحمراء على الخريطة.

حرك المؤشر فوق النقطة لمعرفة اسم المحطة.

ثم انقر لمعرفة أرصاد وتوقعات الطقس.

لتغيير الخارطة: اضغط على الأزرار الخضراء مع رمز الصليب الأسود للتكبير. على الزر الأخضر مع شرطة للتصغير، أو على الأسهم الخضراء للخرائط المجاورة.


METAR-TAF: